sensor_id;sensor_type;location;lat;lon;timestamp;pressure;altitude;pressure_sealevel;temperature
50206;BMP280;36098;48.390;10.856;2023-03-24T00:01:49;95371.53;;;23.39
50206;BMP280;36098;48.390;10.856;2023-03-24T00:04:15;95371.81;;;23.37
50206;BMP280;36098;48.390;10.856;2023-03-24T00:06:40;95365.97;;;23.40
50206;BMP280;36098;48.390;10.856;2023-03-24T00:09:05;95372.88;;;23.36
50206;BMP280;36098;48.390;10.856;2023-03-24T00:11:31;95373.88;;;23.40
50206;BMP280;36098;48.390;10.856;2023-03-24T00:13:58;95367.31;;;23.38
50206;BMP280;36098;48.390;10.856;2023-03-24T00:16:23;95361.84;;;23.34
50206;BMP280;36098;48.390;10.856;2023-03-24T00:18:50;95358.13;;;23.35
50206;BMP280;36098;48.390;10.856;2023-03-24T00:21:17;95358.66;;;23.37
50206;BMP280;36098;48.390;10.856;2023-03-24T00:23:45;95364.78;;;23.33
50206;BMP280;36098;48.390;10.856;2023-03-24T00:26:12;95366.34;;;23.34
50206;BMP280;36098;48.390;10.856;2023-03-24T00:28:41;95351.25;;;23.39
50206;BMP280;36098;48.390;10.856;2023-03-24T00:31:07;95353.28;;;23.42
50206;BMP280;36098;48.390;10.856;2023-03-24T00:33:33;95355.81;;;23.34
50206;BMP280;36098;48.390;10.856;2023-03-24T00:35:59;95349.53;;;23.30
50206;BMP280;36098;48.390;10.856;2023-03-24T00:38:25;95351.38;;;23.29
50206;BMP280;36098;48.390;10.856;2023-03-24T00:40:50;95342.50;;;23.26
50206;BMP280;36098;48.390;10.856;2023-03-24T00:43:16;95339.28;;;23.28
50206;BMP280;36098;48.390;10.856;2023-03-24T00:45:41;95343.19;;;23.31
50206;BMP280;36098;48.390;10.856;2023-03-24T00:48:13;95338.13;;;23.34
50206;BMP280;36098;48.390;10.856;2023-03-24T00:50:38;95341.34;;;23.31
50206;BMP280;36098;48.390;10.856;2023-03-24T00:53:04;95335.56;;;23.29
50206;BMP280;36098;48.390;10.856;2023-03-24T00:55:29;95335.00;;;23.32
50206;BMP280;36098;48.390;10.856;2023-03-24T00:57:56;95328.84;;;23.24
50206;BMP280;36098;48.390;10.856;2023-03-24T01:00:22;95324.28;;;23.29
50206;BMP280;36098;48.390;10.856;2023-03-24T01:02:49;95330.53;;;23.33
50206;BMP280;36098;48.390;10.856;2023-03-24T01:05:18;95325.97;;;23.38
50206;BMP280;36098;48.390;10.856;2023-03-24T01:07:44;95327.09;;;23.32
50206;BMP280;36098;48.390;10.856;2023-03-24T01:10:11;95329.31;;;23.26
50206;BMP280;36098;48.390;10.856;2023-03-24T01:12:37;95330.63;;;23.28
50206;BMP280;36098;48.390;10.856;2023-03-24T01:15:07;95342.72;;;23.29
50206;BMP280;36098;48.390;10.856;2023-03-24T01:17:33;95368.84;;;23.26
50206;BMP280;36098;48.390;10.856;2023-03-24T01:19:58;95375.75;;;23.22
50206;BMP280;36098;48.390;10.856;2023-03-24T01:22:28;95380.13;;;23.26
50206;BMP280;36098;48.390;10.856;2023-03-24T01:24:54;95360.72;;;23.22
50206;BMP280;36098;48.390;10.856;2023-03-24T01:27:19;95341.78;;;23.20
50206;BMP280;36098;48.390;10.856;2023-03-24T01:29:45;95370.53;;;23.17
50206;BMP280;36098;48.390;10.856;2023-03-24T01:32:10;95360.00;;;23.17
50206;BMP280;36098;48.390;10.856;2023-03-24T01:34:35;95354.25;;;23.15
50206;BMP280;36098;48.390;10.856;2023-03-24T01:37:01;95342.09;;;23.19
50206;BMP280;36098;48.390;10.856;2023-03-24T01:39:27;95341.56;;;23.17
50206;BMP280;36098;48.390;10.856;2023-03-24T01:41:52;95330.53;;;23.15
50206;BMP280;36098;48.390;10.856;2023-03-24T01:44:28;95335.31;;;23.13
50206;BMP280;36098;48.390;10.856;2023-03-24T01:46:54;95342.19;;;23.09
50206;BMP280;36098;48.390;10.856;2023-03-24T01:49:20;95333.66;;;23.17
50206;BMP280;36098;48.390;10.856;2023-03-24T01:51:47;95338.38;;;23.20
50206;BMP280;36098;48.390;10.856;2023-03-24T01:54:20;95336.38;;;23.12
50206;BMP280;36098;48.390;10.856;2023-03-24T01:56:58;95338.50;;;23.10
50206;BMP280;36098;48.390;10.856;2023-03-24T01:59:25;95336.38;;;23.12
50206;BMP280;36098;48.390;10.856;2023-03-24T02:01:51;95335.09;;;23.09
50206;BMP280;36098;48.390;10.856;2023-03-24T02:04:18;95336.09;;;23.13
50206;BMP280;36098;48.390;10.856;2023-03-24T02:06:44;95327.91;;;23.15
50206;BMP280;36098;48.390;10.856;2023-03-24T02:09:11;95328.75;;;23.10
50206;BMP280;36098;48.390;10.856;2023-03-24T02:11:37;95332.16;;;23.11
50206;BMP280;36098;48.390;10.856;2023-03-24T02:14:02;95316.88;;;23.13
50206;BMP280;36098;48.390;10.856;2023-03-24T02:18:58;95306.88;;;23.10
50206;BMP280;36098;48.390;10.856;2023-03-24T02:44:12;95242.63;;;23.11
50206;BMP280;36098;48.390;10.856;2023-03-24T02:51:49;95241.59;;;23.12
50206;BMP280;36098;48.390;10.856;2023-03-24T02:54:18;95250.41;;;23.02
50206;BMP280;36098;48.390;10.856;2023-03-24T02:59:30;95229.75;;;23.09
50206;BMP280;36098;48.390;10.856;2023-03-24T03:01:59;95225.03;;;23.11
50206;BMP280;36098;48.390;10.856;2023-03-24T03:04:31;95226.06;;;23.10
50206;BMP280;36098;48.390;10.856;2023-03-24T03:06:57;95216.16;;;23.02
50206;BMP280;36098;48.390;10.856;2023-03-24T03:09:23;95214.13;;;22.99
50206;BMP280;36098;48.390;10.856;2023-03-24T03:11:51;95220.25;;;22.95
50206;BMP280;36098;48.390;10.856;2023-03-24T03:14:19;95228.06;;;23.00
50206;BMP280;36098;48.390;10.856;2023-03-24T03:16:47;95210.31;;;23.05
50206;BMP280;36098;48.390;10.856;2023-03-24T03:19:18;95215.97;;;22.99
50206;BMP280;36098;48.390;10.856;2023-03-24T03:21:44;95208.16;;;22.94
50206;BMP280;36098;48.390;10.856;2023-03-24T03:24:12;95203.72;;;23.08
50206;BMP280;36098;48.390;10.856;2023-03-24T03:26:39;95199.13;;;23.00
50206;BMP280;36098;48.390;10.856;2023-03-24T03:29:10;95193.53;;;23.01
50206;BMP280;36098;48.390;10.856;2023-03-24T03:31:41;95189.25;;;23.05
50206;BMP280;36098;48.390;10.856;2023-03-24T03:34:10;95192.78;;;23.01
50206;BMP280;36098;48.390;10.856;2023-03-24T03:36:42;95180.75;;;22.95
50206;BMP280;36098;48.390;10.856;2023-03-24T03:39:11;95179.63;;;23.01
50206;BMP280;36098;48.390;10.856;2023-03-24T03:41:39;95186.84;;;23.09
50206;BMP280;36098;48.390;10.856;2023-03-24T03:44:06;95193.75;;;23.05
50206;BMP280;36098;48.390;10.856;2023-03-24T03:46:31;95196.66;;;23.03
50206;BMP280;36098;48.390;10.856;2023-03-24T03:48:56;95203.31;;;23.01
50206;BMP280;36098;48.390;10.856;2023-03-24T03:51:21;95191.97;;;23.00
50206;BMP280;36098;48.390;10.856;2023-03-24T03:53:51;95198.22;;;23.04
50206;BMP280;36098;48.390;10.856;2023-03-24T03:56:18;95198.63;;;22.98
50206;BMP280;36098;48.390;10.856;2023-03-24T03:58:44;95194.94;;;22.99
50206;BMP280;36098;48.390;10.856;2023-03-24T04:01:11;95192.38;;;23.07
50206;BMP280;36098;48.390;10.856;2023-03-24T04:06:29;95195.41;;;23.01
50206;BMP280;36098;48.390;10.856;2023-03-24T04:09:04;95188.84;;;22.98
50206;BMP280;36098;48.390;10.856;2023-03-24T04:14:11;95196.19;;;23.01
50206;BMP280;36098;48.390;10.856;2023-03-24T04:17:00;95198.31;;;22.99
50206;BMP280;36098;48.390;10.856;2023-03-24T04:24:47;95202.13;;;22.93
50206;BMP280;36098;48.390;10.856;2023-03-24T04:27:19;95194.50;;;22.92
50206;BMP280;36098;48.390;10.856;2023-03-24T04:32:36;95203.47;;;22.91
50206;BMP280;36098;48.390;10.856;2023-03-24T04:35:09;95211.00;;;22.97
50206;BMP280;36098;48.390;10.856;2023-03-24T04:37:35;95216.94;;;22.89
50206;BMP280;36098;48.390;10.856;2023-03-24T04:40:05;95229.19;;;22.94
50206;BMP280;36098;48.390;10.856;2023-03-24T04:42:33;95225.50;;;22.95
50206;BMP280;36098;48.390;10.856;2023-03-24T04:45:00;95222.81;;;23.00
50206;BMP280;36098;48.390;10.856;2023-03-24T04:47:27;95231.78;;;22.99
50206;BMP280;36098;48.390;10.856;2023-03-24T04:50:00;95238.84;;;22.85
50206;BMP280;36098;48.390;10.856;2023-03-24T04:52:25;95240.47;;;22.81
50206;BMP280;36098;48.390;10.856;2023-03-24T04:54:51;95235.63;;;22.88
50206;BMP280;36098;48.390;10.856;2023-03-24T04:57:16;95228.44;;;22.93
50206;BMP280;36098;48.390;10.856;2023-03-24T04:59:42;95232.78;;;22.84
50206;BMP280;36098;48.390;10.856;2023-03-24T05:02:07;95223.94;;;22.94
50206;BMP280;36098;48.390;10.856;2023-03-24T05:04:33;95217.59;;;22.95
50206;BMP280;36098;48.390;10.856;2023-03-24T05:07:00;95231.69;;;23.04
50206;BMP280;36098;48.390;10.856;2023-03-24T05:09:26;95230.22;;;22.79
50206;BMP280;36098;48.390;10.856;2023-03-24T05:11:51;95230.91;;;22.71
50206;BMP280;36098;48.390;10.856;2023-03-24T05:14:16;95228.94;;;22.77
50206;BMP280;36098;48.390;10.856;2023-03-24T05:16:42;95226.75;;;22.84
50206;BMP280;36098;48.390;10.856;2023-03-24T05:19:07;95231.94;;;22.89
50206;BMP280;36098;48.390;10.856;2023-03-24T05:21:32;95222.38;;;22.93
50206;BMP280;36098;48.390;10.856;2023-03-24T05:23:58;95220.25;;;22.95
50206;BMP280;36098;48.390;10.856;2023-03-24T05:26:23;95209.16;;;22.98
50206;BMP280;36098;48.390;10.856;2023-03-24T05:28:50;95202.31;;;22.97
50206;BMP280;36098;48.390;10.856;2023-03-24T05:31:15;95180.19;;;22.98
50206;BMP280;36098;48.390;10.856;2023-03-24T05:33:40;95168.00;;;23.02
50206;BMP280;36098;48.390;10.856;2023-03-24T05:36:06;95168.41;;;23.09
50206;BMP280;36098;48.390;10.856;2023-03-24T05:38:31;95166.50;;;23.14
50206;BMP280;36098;48.390;10.856;2023-03-24T05:40:59;95175.09;;;23.20
50206;BMP280;36098;48.390;10.856;2023-03-24T05:43:25;95169.03;;;23.19
50206;BMP280;36098;48.390;10.856;2023-03-24T05:45:50;95174.03;;;23.21
50206;BMP280;36098;48.390;10.856;2023-03-24T05:48:15;95172.38;;;23.25
50206;BMP280;36098;48.390;10.856;2023-03-24T05:50:41;95166.25;;;23.29
50206;BMP280;36098;48.390;10.856;2023-03-24T05:53:07;95156.78;;;23.28
50206;BMP280;36098;48.390;10.856;2023-03-24T05:55:32;95164.00;;;23.36
50206;BMP280;36098;48.390;10.856;2023-03-24T05:57:57;95173.19;;;23.38
50206;BMP280;36098;48.390;10.856;2023-03-24T06:00:26;95175.50;;;23.40
50206;BMP280;36098;48.390;10.856;2023-03-24T06:02:52;95171.41;;;23.47
50206;BMP280;36098;48.390;10.856;2023-03-24T06:05:17;95177.66;;;23.51
50206;BMP280;36098;48.390;10.856;2023-03-24T06:07:42;95178.13;;;23.53
50206;BMP280;36098;48.390;10.856;2023-03-24T06:10:08;95181.38;;;23.64
50206;BMP280;36098;48.390;10.856;2023-03-24T06:12:34;95182.91;;;23.65
50206;BMP280;36098;48.390;10.856;2023-03-24T06:14:59;95175.69;;;23.70
50206;BMP280;36098;48.390;10.856;2023-03-24T06:17:25;95175.91;;;23.60
50206;BMP280;36098;48.390;10.856;2023-03-24T06:19:52;95177.84;;;23.55
50206;BMP280;36098;48.390;10.856;2023-03-24T06:22:18;95187.03;;;23.57
50206;BMP280;36098;48.390;10.856;2023-03-24T06:24:44;95183.13;;;23.55
50206;BMP280;36098;48.390;10.856;2023-03-24T06:27:11;95195.44;;;23.59
50206;BMP280;36098;48.390;10.856;2023-03-24T06:29:38;95204.00;;;23.51
50206;BMP280;36098;48.390;10.856;2023-03-24T06:32:03;95208.56;;;23.46
50206;BMP280;36098;48.390;10.856;2023-03-24T06:34:29;95213.78;;;23.51
50206;BMP280;36098;48.390;10.856;2023-03-24T06:36:56;95204.97;;;23.55
50206;BMP280;36098;48.390;10.856;2023-03-24T06:39:21;95211.53;;;23.71
50206;BMP280;36098;48.390;10.856;2023-03-24T06:41:47;95215.94;;;23.62
50206;BMP280;36098;48.390;10.856;2023-03-24T06:44:13;95215.56;;;23.82
50206;BMP280;36098;48.390;10.856;2023-03-24T06:46:38;95218.28;;;23.77
50206;BMP280;36098;48.390;10.856;2023-03-24T06:49:04;95218.91;;;23.88
50206;BMP280;36098;48.390;10.856;2023-03-24T06:51:29;95225.56;;;24.34
50206;BMP280;36098;48.390;10.856;2023-03-24T06:53:55;95220.84;;;24.45
50206;BMP280;36098;48.390;10.856;2023-03-24T06:56:20;95235.59;;;24.59
50206;BMP280;36098;48.390;10.856;2023-03-24T06:58:45;95234.44;;;24.52
50206;BMP280;36098;48.390;10.856;2023-03-24T07:01:11;95240.69;;;24.42
50206;BMP280;36098;48.390;10.856;2023-03-24T07:03:36;95241.66;;;24.60
50206;BMP280;36098;48.390;10.856;2023-03-24T07:06:02;95253.78;;;24.61
50206;BMP280;36098;48.390;10.856;2023-03-24T07:08:28;95250.72;;;24.67
50206;BMP280;36098;48.390;10.856;2023-03-24T07:10:54;95260.63;;;24.48
50206;BMP280;36098;48.390;10.856;2023-03-24T07:13:19;95275.38;;;24.49
50206;BMP280;36098;48.390;10.856;2023-03-24T07:15:45;95274.13;;;24.33
50206;BMP280;36098;48.390;10.856;2023-03-24T07:18:10;95286.66;;;23.87
50206;BMP280;36098;48.390;10.856;2023-03-24T07:20:37;95288.50;;;24.27
50206;BMP280;36098;48.390;10.856;2023-03-24T07:23:02;95282.94;;;23.88
50206;BMP280;36098;48.390;10.856;2023-03-24T07:25:27;95287.19;;;23.57
50206;BMP280;36098;48.390;10.856;2023-03-24T07:27:53;95289.88;;;23.98
50206;BMP280;36098;48.390;10.856;2023-03-24T07:30:22;95285.44;;;24.47
50206;BMP280;36098;48.390;10.856;2023-03-24T07:32:47;95282.53;;;24.35
50206;BMP280;36098;48.390;10.856;2023-03-24T07:35:13;95285.78;;;24.05
50206;BMP280;36098;48.390;10.856;2023-03-24T07:37:38;95287.13;;;23.89
50206;BMP280;36098;48.390;10.856;2023-03-24T07:40:04;95290.75;;;24.20
50206;BMP280;36098;48.390;10.856;2023-03-24T07:42:36;95292.59;;;24.33
50206;BMP280;36098;48.390;10.856;2023-03-24T07:45:01;95291.72;;;24.51
50206;BMP280;36098;48.390;10.856;2023-03-24T07:47:26;95285.09;;;24.27
50206;BMP280;36098;48.390;10.856;2023-03-24T07:49:51;95280.56;;;24.41
50206;BMP280;36098;48.390;10.856;2023-03-24T07:52:17;95280.59;;;24.27
50206;BMP280;36098;48.390;10.856;2023-03-24T07:54:42;95288.97;;;24.29
50206;BMP280;36098;48.390;10.856;2023-03-24T07:57:07;95299.25;;;24.17
50206;BMP280;36098;48.390;10.856;2023-03-24T07:59:32;95305.00;;;24.46
50206;BMP280;36098;48.390;10.856;2023-03-24T08:01:58;95305.69;;;24.38
50206;BMP280;36098;48.390;10.856;2023-03-24T08:04:23;95299.72;;;24.33
50206;BMP280;36098;48.390;10.856;2023-03-24T08:06:48;95291.72;;;24.24
50206;BMP280;36098;48.390;10.856;2023-03-24T08:09:13;95289.97;;;24.47
50206;BMP280;36098;48.390;10.856;2023-03-24T08:11:39;95286.25;;;24.48
50206;BMP280;36098;48.390;10.856;2023-03-24T08:14:04;95285.56;;;24.29
50206;BMP280;36098;48.390;10.856;2023-03-24T08:16:29;95301.78;;;24.22
50206;BMP280;36098;48.390;10.856;2023-03-24T08:18:55;95302.16;;;24.29
50206;BMP280;36098;48.390;10.856;2023-03-24T08:21:23;95315.16;;;24.12
50206;BMP280;36098;48.390;10.856;2023-03-24T08:23:49;95305.53;;;23.76
50206;BMP280;36098;48.390;10.856;2023-03-24T08:26:14;95320.38;;;23.58
50206;BMP280;36098;48.390;10.856;2023-03-24T08:28:39;95317.78;;;23.53
50206;BMP280;36098;48.390;10.856;2023-03-24T08:31:05;95330.84;;;23.45
50206;BMP280;36098;48.390;10.856;2023-03-24T08:33:31;95325.97;;;23.38
50206;BMP280;36098;48.390;10.856;2023-03-24T08:35:56;95332.59;;;23.36
50206;BMP280;36098;48.390;10.856;2023-03-24T08:38:22;95343.69;;;23.33
50206;BMP280;36098;48.390;10.856;2023-03-24T08:40:55;95341.81;;;23.33
50206;BMP280;36098;48.390;10.856;2023-03-24T08:43:22;95340.84;;;23.29
50206;BMP280;36098;48.390;10.856;2023-03-24T08:45:48;95339.78;;;23.30
50206;BMP280;36098;48.390;10.856;2023-03-24T08:48:13;95354.81;;;23.30
50206;BMP280;36098;48.390;10.856;2023-03-24T08:50:39;95343.97;;;23.31
50206;BMP280;36098;48.390;10.856;2023-03-24T08:53:05;95351.09;;;23.31
50206;BMP280;36098;48.390;10.856;2023-03-24T08:55:31;95355.59;;;23.30
50206;BMP280;36098;48.390;10.856;2023-03-24T08:57:56;95356.72;;;23.25
50206;BMP280;36098;48.390;10.856;2023-03-24T09:00:21;95355.44;;;23.40
50206;BMP280;36098;48.390;10.856;2023-03-24T09:02:48;95360.50;;;23.37
50206;BMP280;36098;48.390;10.856;2023-03-24T09:05:13;95368.59;;;23.40
50206;BMP280;36098;48.390;10.856;2023-03-24T09:07:39;95367.09;;;23.34
50206;BMP280;36098;48.390;10.856;2023-03-24T09:10:05;95361.13;;;23.47
50206;BMP280;36098;48.390;10.856;2023-03-24T09:12:31;95359.44;;;23.70
50206;BMP280;36098;48.390;10.856;2023-03-24T09:14:56;95366.25;;;23.71
50206;BMP280;36098;48.390;10.856;2023-03-24T09:17:22;95362.91;;;23.33
50206;BMP280;36098;48.390;10.856;2023-03-24T09:19:47;95368.91;;;23.21
50206;BMP280;36098;48.390;10.856;2023-03-24T09:22:12;95379.19;;;23.35
50206;BMP280;36098;48.390;10.856;2023-03-24T09:24:37;95383.16;;;23.51
50206;BMP280;36098;48.390;10.856;2023-03-24T09:27:02;95374.03;;;23.94
50206;BMP280;36098;48.390;10.856;2023-03-24T09:29:28;95371.81;;;23.88
50206;BMP280;36098;48.390;10.856;2023-03-24T09:31:54;95374.66;;;23.73
50206;BMP280;36098;48.390;10.856;2023-03-24T09:34:19;95386.03;;;23.55
50206;BMP280;36098;48.390;10.856;2023-03-24T09:36:45;95393.56;;;23.61
50206;BMP280;36098;48.390;10.856;2023-03-24T09:39:11;95392.81;;;23.74
50206;BMP280;36098;48.390;10.856;2023-03-24T09:41:36;95398.09;;;23.74
50206;BMP280;36098;48.390;10.856;2023-03-24T09:44:06;95388.06;;;23.76
50206;BMP280;36098;48.390;10.856;2023-03-24T09:46:50;95390.69;;;23.76
50206;BMP280;36098;48.390;10.856;2023-03-24T09:49:20;95390.13;;;23.61
50206;BMP280;36098;48.390;10.856;2023-03-24T09:51:47;95396.25;;;23.75
50206;BMP280;36098;48.390;10.856;2023-03-24T09:54:17;95398.75;;;23.66
50206;BMP280;36098;48.390;10.856;2023-03-24T09:56:46;95404.78;;;23.85
50206;BMP280;36098;48.390;10.856;2023-03-24T09:59:15;95398.72;;;23.85
50206;BMP280;36098;48.390;10.856;2023-03-24T10:01:41;95401.09;;;23.86
50206;BMP280;36098;48.390;10.856;2023-03-24T10:04:12;95393.06;;;23.91
50206;BMP280;36098;48.390;10.856;2023-03-24T10:06:38;95392.81;;;23.74
50206;BMP280;36098;48.390;10.856;2023-03-24T10:09:19;95394.59;;;23.79
50206;BMP280;36098;48.390;10.856;2023-03-24T10:16:41;95386.91;;;23.64
50206;BMP280;36098;48.390;10.856;2023-03-24T10:21:40;95390.75;;;23.90
50206;BMP280;36098;48.390;10.856;2023-03-24T10:24:18;95373.88;;;24.04
50206;BMP280;36098;48.390;10.856;2023-03-24T10:26:50;95363.06;;;24.19
50206;BMP280;36098;48.390;10.856;2023-03-24T10:31:50;95353.84;;;24.30
50206;BMP280;36098;48.390;10.856;2023-03-24T10:34:15;95333.63;;;24.12
50206;BMP280;36098;48.390;10.856;2023-03-24T10:36:41;95331.88;;;24.35
50206;BMP280;36098;48.390;10.856;2023-03-24T10:39:09;95326.09;;;24.46
50206;BMP280;36098;48.390;10.856;2023-03-24T10:41:38;95334.00;;;24.46
50206;BMP280;36098;48.390;10.856;2023-03-24T10:44:04;95325.53;;;24.36
50206;BMP280;36098;48.390;10.856;2023-03-24T10:46:30;95341.16;;;24.32
50206;BMP280;36098;48.390;10.856;2023-03-24T10:49:12;95347.13;;;24.38
50206;BMP280;36098;48.390;10.856;2023-03-24T10:51:39;95366.88;;;24.40
50206;BMP280;36098;48.390;10.856;2023-03-24T10:54:14;95382.81;;;24.35
50206;BMP280;36098;48.390;10.856;2023-03-24T10:56:47;95376.13;;;24.38
50206;BMP280;36098;48.390;10.856;2023-03-24T11:01:44;95373.47;;;23.65
50206;BMP280;36098;48.390;10.856;2023-03-24T11:04:09;95364.16;;;23.86
50206;BMP280;36098;48.390;10.856;2023-03-24T11:06:37;95352.88;;;24.13
50206;BMP280;36098;48.390;10.856;2023-03-24T11:09:09;95343.59;;;24.15
50206;BMP280;36098;48.390;10.856;2023-03-24T11:11:35;95336.97;;;24.04
50206;BMP280;36098;48.390;10.856;2023-03-24T11:14:01;95329.03;;;24.04
50206;BMP280;36098;48.390;10.856;2023-03-24T11:16:37;95335.50;;;23.98
50206;BMP280;36098;48.390;10.856;2023-03-24T11:19:04;95327.34;;;23.81
50206;BMP280;36098;48.390;10.856;2023-03-24T11:21:31;95332.31;;;23.83
50206;BMP280;36098;48.390;10.856;2023-03-24T11:24:00;95334.41;;;23.99
50206;BMP280;36098;48.390;10.856;2023-03-24T11:26:29;95324.16;;;24.38
50206;BMP280;36098;48.390;10.856;2023-03-24T11:28:56;95321.03;;;24.50
50206;BMP280;36098;48.390;10.856;2023-03-24T11:31:29;95318.91;;;24.52
50206;BMP280;36098;48.390;10.856;2023-03-24T11:39:34;95304.22;;;24.19
50206;BMP280;36098;48.390;10.856;2023-03-24T11:47:03;95333.41;;;23.95
50206;BMP280;36098;48.390;10.856;2023-03-24T11:49:32;95337.72;;;23.91
50206;BMP280;36098;48.390;10.856;2023-03-24T11:51:58;95340.94;;;23.88
50206;BMP280;36098;48.390;10.856;2023-03-24T11:54:26;95353.94;;;23.66
50206;BMP280;36098;48.390;10.856;2023-03-24T11:56:52;95347.25;;;23.55
50206;BMP280;36098;48.390;10.856;2023-03-24T12:01:46;95333.63;;;23.99
50206;BMP280;36098;48.390;10.856;2023-03-24T12:17:31;95295.63;;;23.54
50206;BMP280;36098;48.390;10.856;2023-03-24T12:20:07;95313.97;;;23.91
50206;BMP280;36098;48.390;10.856;2023-03-24T12:25:27;95310.13;;;23.70
50206;BMP280;36098;48.390;10.856;2023-03-24T12:30:46;95303.25;;;24.15
50206;BMP280;36098;48.390;10.856;2023-03-24T12:33:36;95289.34;;;24.50
50206;BMP280;36098;48.390;10.856;2023-03-24T12:45:57;95293.38;;;23.93
50206;BMP280;36098;48.390;10.856;2023-03-24T12:58:45;95293.56;;;23.83
50206;BMP280;36098;48.390;10.856;2023-03-24T13:04:08;95281.97;;;24.11
50206;BMP280;36098;48.390;10.856;2023-03-24T13:06:36;95282.75;;;24.25
50206;BMP280;36098;48.390;10.856;2023-03-24T13:11:32;95277.38;;;24.17
50206;BMP280;36098;48.390;10.856;2023-03-24T13:13:59;95280.41;;;23.83
50206;BMP280;36098;48.390;10.856;2023-03-24T13:16:26;95283.03;;;23.83
50206;BMP280;36098;48.390;10.856;2023-03-24T13:18:56;95281.38;;;24.01
50206;BMP280;36098;48.390;10.856;2023-03-24T13:21:24;95285.19;;;24.08
50206;BMP280;36098;48.390;10.856;2023-03-24T13:23:54;95277.25;;;24.22
50206;BMP280;36098;48.390;10.856;2023-03-24T13:31:27;95281.94;;;24.38
50206;BMP280;36098;48.390;10.856;2023-03-24T13:33:53;95282.81;;;24.47
50206;BMP280;36098;48.390;10.856;2023-03-24T13:36:26;95287.31;;;24.47
50206;BMP280;36098;48.390;10.856;2023-03-24T13:38:54;95285.84;;;24.54
50206;BMP280;36098;48.390;10.856;2023-03-24T13:41:21;95279.19;;;24.43
50206;BMP280;36098;48.390;10.856;2023-03-24T13:44:00;95272.97;;;24.39
50206;BMP280;36098;48.390;10.856;2023-03-24T13:46:26;95289.47;;;24.58
50206;BMP280;36098;48.390;10.856;2023-03-24T13:48:53;95283.50;;;24.39
50206;BMP280;36098;48.390;10.856;2023-03-24T13:53:51;95279.75;;;24.67
50206;BMP280;36098;48.390;10.856;2023-03-24T13:56:25;95269.59;;;24.61
50206;BMP280;36098;48.390;10.856;2023-03-24T14:01:43;95272.44;;;24.64
50206;BMP280;36098;48.390;10.856;2023-03-24T14:06:44;95248.91;;;24.54
50206;BMP280;36098;48.390;10.856;2023-03-24T14:09:15;95231.81;;;24.52
50206;BMP280;36098;48.390;10.856;2023-03-24T14:11:45;95242.31;;;24.65
50206;BMP280;36098;48.390;10.856;2023-03-24T14:14:17;95238.28;;;24.81
50206;BMP280;36098;48.390;10.856;2023-03-24T14:19:21;95226.91;;;24.59
50206;BMP280;36098;48.390;10.856;2023-03-24T14:21:57;95223.78;;;24.43
50206;BMP280;36098;48.390;10.856;2023-03-24T14:24:27;95228.91;;;24.75
50206;BMP280;36098;48.390;10.856;2023-03-24T14:26:52;95238.94;;;24.51
50206;BMP280;36098;48.390;10.856;2023-03-24T14:32:05;95250.28;;;24.25
50206;BMP280;36098;48.390;10.856;2023-03-24T14:34:36;95248.47;;;23.98
50206;BMP280;36098;48.390;10.856;2023-03-24T14:37:01;95270.34;;;23.85
50206;BMP280;36098;48.390;10.856;2023-03-24T14:39:32;95265.78;;;23.72
50206;BMP280;36098;48.390;10.856;2023-03-24T14:41:59;95269.34;;;23.68
50206;BMP280;36098;48.390;10.856;2023-03-24T14:47:08;95271.38;;;23.57
50206;BMP280;36098;48.390;10.856;2023-03-24T14:49:34;95283.25;;;23.55
50206;BMP280;36098;48.390;10.856;2023-03-24T14:54:39;95277.00;;;23.51
50206;BMP280;36098;48.390;10.856;2023-03-24T14:57:08;95287.72;;;23.54
50206;BMP280;36098;48.390;10.856;2023-03-24T15:02:15;95284.63;;;23.66
50206;BMP280;36098;48.390;10.856;2023-03-24T15:07:28;95286.66;;;23.55
50206;BMP280;36098;48.390;10.856;2023-03-24T15:09:53;95289.63;;;23.67
50206;BMP280;36098;48.390;10.856;2023-03-24T15:12:18;95291.28;;;23.63
50206;BMP280;36098;48.390;10.856;2023-03-24T15:14:44;95289.88;;;23.52
50206;BMP280;36098;48.390;10.856;2023-03-24T15:17:18;95289.38;;;23.50
50206;BMP280;36098;48.390;10.856;2023-03-24T15:19:45;95287.25;;;23.52
50206;BMP280;36098;48.390;10.856;2023-03-24T15:22:13;95293.50;;;23.56
50206;BMP280;36098;48.390;10.856;2023-03-24T15:24:42;95289.13;;;23.65
50206;BMP280;36098;48.390;10.856;2023-03-24T15:27:18;95286.09;;;23.58
50206;BMP280;36098;48.390;10.856;2023-03-24T15:29:45;95292.59;;;23.47
50206;BMP280;36098;48.390;10.856;2023-03-24T15:32:18;95285.38;;;23.39
50206;BMP280;36098;48.390;10.856;2023-03-24T15:34:50;95292.97;;;23.41
50206;BMP280;36098;48.390;10.856;2023-03-24T15:37:22;95302.03;;;23.35
50206;BMP280;36098;48.390;10.856;2023-03-24T15:39:49;95308.16;;;23.30
50206;BMP280;36098;48.390;10.856;2023-03-24T15:42:16;95317.00;;;23.39
50206;BMP280;36098;48.390;10.856;2023-03-24T15:44:42;95316.69;;;23.41
50206;BMP280;36098;48.390;10.856;2023-03-24T15:47:20;95317.00;;;23.39
50206;BMP280;36098;48.390;10.856;2023-03-24T15:52:34;95319.63;;;23.39
50206;BMP280;36098;48.390;10.856;2023-03-24T15:55:01;95315.16;;;23.22
50206;BMP280;36098;48.390;10.856;2023-03-24T15:57:27;95322.63;;;23.15
50206;BMP280;36098;48.390;10.856;2023-03-24T16:04:46;95299.19;;;23.31
50206;BMP280;36098;48.390;10.856;2023-03-24T16:07:20;95279.31;;;23.39
50206;BMP280;36098;48.390;10.856;2023-03-24T16:09:53;95299.19;;;23.31
50206;BMP280;36098;48.390;10.856;2023-03-24T16:12:20;95300.84;;;23.27
50206;BMP280;36098;48.390;10.856;2023-03-24T16:14:45;95275.78;;;23.30
50206;BMP280;36098;48.390;10.856;2023-03-24T16:17:10;95276.81;;;23.47
50206;BMP280;36098;48.390;10.856;2023-03-24T16:19:36;95260.41;;;23.50
50206;BMP280;36098;48.390;10.856;2023-03-24T16:22:04;95239.59;;;23.35
50206;BMP280;36098;48.390;10.856;2023-03-24T16:24:29;95246.59;;;23.27
50206;BMP280;36098;48.390;10.856;2023-03-24T16:26:54;95260.47;;;23.32
50206;BMP280;36098;48.390;10.856;2023-03-24T16:29:20;95238.72;;;23.40
50206;BMP280;36098;48.390;10.856;2023-03-24T16:31:48;95266.84;;;23.44